Private Wetterstation Sandau
Wetterdaten: Sonntag, 25.03.2012
Datum Zeit Temp. A. Feuchte A. Luftdruck Regen Wind Richtung Richtung Taupunkt Windchill
25.03.2012 00:02 7,3 C 74 % 1028,3 hPa 0,0 l/m 0,0 km/h (0 Bft) W-NW 292 3,0 C 7,3 C
25.03.2012 00:07 7,3 C 75 % 1028,1 hPa 0,0 l/m 0,0 km/h (0 Bft) W-NW 292 3,2 C 7,3 C
25.03.2012 00:12 7,2 C 75 % 1028,1 hPa 0,0 l/m 2,2 km/h (1 Bft) W-NW 292 3,1 C 7,2 C
25.03.2012 00:17 7,2 C 75 % 1028,3 hPa 0,0 l/m 0,0 km/h (0 Bft) W 270 3,1 C 7,2 C
25.03.2012 00:22 7,2 C 75 % 1028,3 hPa 0,0 l/m 0,0 km/h (0 Bft) W 270 3,1 C 7,2 C
25.03.2012 00:27 7,1 C 75 % 1028,2 hPa 0,0 l/m 0,0 km/h (0 Bft) W 270 3,0 C 7,1 C
25.03.2012 00:32 7,1 C 75 % 1028,3 hPa 0,0 l/m 1,8 km/h (1 Bft) W-NW 292 3,0 C 7,1 C
25.03.2012 00:37 7,0 C 75 % 1028,5 hPa 0,0 l/m 0,0 km/h (0 Bft) W 270 2,9 C 7,0 C
25.03.2012 00:42 6,9 C 75 % 1028,6 hPa 0,0 l/m 0,0 km/h (0 Bft) W 270 2,8 C 6,9 C
25.03.2012 00:47 6,8 C 76 % 1028,4 hPa 0,0 l/m 1,8 km/h (1 Bft) W-NW 292 2,9 C 6,8 C
25.03.2012 00:52 6,7 C 76 % 1028,5 hPa 0,0 l/m 0,0 km/h (0 Bft) W-NW 292 2,8 C 6,7 C
25.03.2012 00:57 6,6 C 76 % 1028,5 hPa 0,0 l/m 0,0 km/h (0 Bft) W 270 2,7 C 6,6 C
25.03.2012 01:02 6,6 C 77 % 1028,4 hPa 0,0 l/m 0,0 km/h (0 Bft) W 270 2,9 C 6,6 C
25.03.2012 01:07 6,6 C 77 % 1028,5 hPa 0,0 l/m 1,4 km/h (1 Bft) W 270 2,9 C 6,6 C
25.03.2012 01:12 6,6 C 77 % 1028,6 hPa 0,0 l/m 1,4 km/h (1 Bft) W 270 2,9 C 6,6 C
25.03.2012 01:17 6,5 C 77 % 1028,6 hPa 0,0 l/m 1,8 km/h (1 Bft) W 270 2,8 C 6,5 C
25.03.2012 01:22 6,5 C 77 % 1028,6 hPa 0,0 l/m 1,8 km/h (1 Bft) W-NW 292 2,8 C 6,5 C
25.03.2012 01:27 6,4 C 77 % 1028,4 hPa 0,0 l/m 1,8 km/h (1 Bft) W 270 2,7 C 6,4 C
25.03.2012 01:32 6,3 C 78 % 1028,6 hPa 0,0 l/m 2,9 km/h (1 Bft) W-NW 292 2,8 C 6,3 C
25.03.2012 01:37 6,3 C 78 % 1028,7 hPa 0,0 l/m 1,8 km/h (1 Bft) W-NW 292 2,8 C 6,3 C
25.03.2012 01:42 6,3 C 78 % 1028,7 hPa 0,0 l/m 1,1 km/h (1 Bft) W 270 2,8 C 6,3 C
25.03.2012 01:47 6,2 C 78 % 1028,6 hPa 0,0 l/m 1,4 km/h (1 Bft) W 270 2,7 C 6,2 C
25.03.2012 01:52 6,2 C 78 % 1028,5 hPa 0,0 l/m 2,2 km/h (1 Bft) W 270 2,7 C 6,2 C
25.03.2012 01:57 6,2 C 79 % 1028,6 hPa 0,0 l/m 2,2 km/h (1 Bft) W 270 2,8 C 6,2 C
25.03.2012 02:02 6,1 C 79 % 1028,6 hPa 0,0 l/m 1,4 km/h (1 Bft) W 270 2,7 C 6,1 C
25.03.2012 02:07 6,6 C 77 % 1028,5 hPa 0,0 l/m 1,4 km/h (1 Bft) W 270 2,9 C 6,6 C
25.03.2012 02:12 6,6 C 77 % 1028,6 hPa 0,0 l/m 1,4 km/h (1 Bft) W 270 2,9 C 6,6 C
25.03.2012 02:17 6,5 C 77 % 1028,6 hPa 0,0 l/m 1,8 km/h (1 Bft) W 270 2,8 C 6,5 C
25.03.2012 02:22 6,5 C 77 % 1028,6 hPa 0,0 l/m 1,8 km/h (1 Bft) W-NW 292 2,8 C 6,5 C
25.03.2012 02:27 6,4 C 77 % 1028,4 hPa 0,0 l/m 1,8 km/h (1 Bft) W 270 2,7 C 6,4 C
25.03.2012 02:32 6,3 C 78 % 1028,6 hPa 0,0 l/m 2,9 km/h (1 Bft) W-NW 292 2,8 C 6,3 C
25.03.2012 02:37 6,3 C 78 % 1028,7 hPa 0,0 l/m 1,8 km/h (1 Bft) W-NW 292 2,8 C 6,3 C
25.03.2012 02:42 6,3 C 78 % 1028,7 hPa 0,0 l/m 1,1 km/h (1 Bft) W 270 2,8 C 6,3 C
25.03.2012 02:47 6,2 C 78 % 1028,6 hPa 0,0 l/m 1,4 km/h (1 Bft) W 270 2,7 C 6,2 C
25.03.2012 02:52 6,2 C 78 % 1028,5 hPa 0,0 l/m 2,2 km/h (1 Bft) W 270 2,7 C 6,2 C
25.03.2012 02:57 6,2 C 79 % 1028,6 hPa 0,0 l/m 2,2 km/h (1 Bft) W 270 2,8 C 6,2 C
25.03.2012 03:02 6,1 C 79 % 1028,6 hPa 0,0 l/m 1,4 km/h (1 Bft) W 270 2,7 C 6,1 C
25.03.2012 03:07 6,1 C 79 % 1028,6 hPa 0,0 l/m 2,5 km/h (1 Bft) W 270 2,7 C 6,1 C
25.03.2012 03:12 6,1 C 80 % 1028,6 hPa 0,0 l/m 0,0 km/h (0 Bft) W 270 2,9 C 6,1 C
25.03.2012 03:17 6,0 C 80 % 1028,3 hPa 0,0 l/m 1,4 km/h (1 Bft) W 270 2,8 C 6,0 C
25.03.2012 03:22 6,1 C 80 % 1028,3 hPa 0,0 l/m 0,0 km/h (0 Bft) W 270 2,9 C 6,1 C
25.03.2012 03:27 6,0 C 80 % 1028,5 hPa 0,0 l/m 0,0 km/h (0 Bft) W 270 2,8 C 6,0 C
25.03.2012 03:32 5,9 C 79 % 1028,4 hPa 0,0 l/m 1,1 km/h (1 Bft) W 270 2,5 C 5,9 C
25.03.2012 03:37 5,9 C 79 % 1028,4 hPa 0,0 l/m 0,0 km/h (0 Bft) W 270 2,5 C 5,9 C
25.03.2012 03:42 5,9 C 80 % 1028,4 hPa 0,0 l/m 0,0 km/h (0 Bft) W 270 2,7 C 5,9 C
25.03.2012 03:47 5,9 C 80 % 1028,4 hPa 0,0 l/m 0,0 km/h (0 Bft) W 270 2,7 C 5,9 C
25.03.2012 03:52 5,9 C 80 % 1028,6 hPa 0,0 l/m 2,5 km/h (1 Bft) W 270 2,7 C 5,9 C
25.03.2012 03:57 5,9 C 80 % 1028,6 hPa 0,0 l/m 0,0 km/h (0 Bft) W 270 2,7 C 5,9 C
25.03.2012 04:02 5,8 C 80 % 1028,6 hPa 0,0 l/m 2,2 km/h (1 Bft) W 270 2,6 C 5,8 C
25.03.2012 04:07 5,8 C 80 % 1028,6 hPa 0,0 l/m 3,2 km/h (1 Bft) W 270 2,6 C 5,8 C
25.03.2012 04:12 5,8 C 81 % 1028,5 hPa 0,0 l/m 3,6 km/h (1 Bft) W-SW 247 2,8 C 5,8 C
25.03.2012 04:17 5,8 C 81 % 1028,4 hPa 0,0 l/m 2,9 km/h (1 Bft) W-SW 247 2,8 C 5,8 C
25.03.2012 04:22 5,7 C 81 % 1028,4 hPa 0,0 l/m 3,2 km/h (1 Bft) W 270 2,7 C 5,7 C
25.03.2012 04:27 5,6 C 81 % 1028,4 hPa 0,0 l/m 1,8 km/h (1 Bft) W 270 2,6 C 5,6 C
25.03.2012 04:32 5,6 C 81 % 1028,6 hPa 0,0 l/m 0,0 km/h (0 Bft) W-NW 292 2,6 C 5,6 C
25.03.2012 04:37 5,4 C 81 % 1028,6 hPa 0,0 l/m 2,5 km/h (1 Bft) W 270 2,4 C 5,4 C
25.03.2012 04:42 5,4 C 81 % 1028,6 hPa 0,0 l/m 3,6 km/h (1 Bft) W-NW 292 2,4 C 5,4 C
25.03.2012 04:47 5,3 C 81 % 1028,5 hPa 0,0 l/m 2,5 km/h (1 Bft) W 270 2,3 C 5,3 C
25.03.2012 04:52 5,3 C 82 % 1028,4 hPa 0,0 l/m 2,2 km/h (1 Bft) W-NW 292 2,5 C 5,3 C
25.03.2012 04:57 5,3 C 82 % 1028,4 hPa 0,0 l/m 2,2 km/h (1 Bft) W-NW 292 2,5 C 5,3 C
25.03.2012 05:02 5,3 C 83 % 1028,4 hPa 0,0 l/m 3,2 km/h (1 Bft) NW 315 2,7 C 5,3 C
25.03.2012 05:07 5,3 C 83 % 1028,5 hPa 0,0 l/m 5,4 km/h (1 Bft) W-NW 292 2,7 C 4,3 C
25.03.2012 05:12 5,3 C 83 % 1028,7 hPa 0,0 l/m 3,6 km/h (1 Bft) W 270 2,7 C 5,3 C
25.03.2012 05:17 5,3 C 83 % 1028,6 hPa 0,0 l/m 6,1 km/h (2 Bft) W-NW 292 2,7 C 4,0 C
25.03.2012 05:22 5,3 C 84 % 1028,6 hPa 0,0 l/m 4,0 km/h (1 Bft) N-NW 337 2,8 C 5,3 C
25.03.2012 05:27 5,1 C 85 % 1028,7 hPa 0,0 l/m 2,9 km/h (1 Bft) NW 315 2,8 C 5,1 C
25.03.2012 05:32 4,9 C 85 % 1028,6 hPa 0,0 l/m 1,4 km/h (1 Bft) N-NO 22 2,6 C 4,9 C
25.03.2012 05:37 4,9 C 86 % 1028,6 hPa 0,0 l/m 1,4 km/h (1 Bft) W-NW 292 2,8 C 4,9 C
25.03.2012 05:42 4,7 C 86 % 1028,7 hPa 0,0 l/m 2,2 km/h (1 Bft) W 270 2,6 C 4,7 C
25.03.2012 05:47 4,6 C 86 % 1028,7 hPa 0,0 l/m 0,0 km/h (0 Bft) W-NW 292 2,5 C 4,6 C
25.03.2012 05:52 4,5 C 86 % 1028,5 hPa 0,0 l/m 4,7 km/h (1 Bft) W-NW 292 2,4 C 3,6 C
25.03.2012 05:57 4,5 C 87 % 1028,6 hPa 0,0 l/m 3,6 km/h (1 Bft) W-NW 292 2,5 C 4,5 C
25.03.2012 06:02 4,5 C 87 % 1028,6 hPa 0,0 l/m 6,1 km/h (2 Bft) W-NW 292 2,5 C 3,1 C
25.03.2012 06:07 4,5 C 87 % 1028,7 hPa 0,0 l/m 10,8 km/h (2 Bft) W-NW 292 2,5 C 1,9 C
25.03.2012 06:12 4,5 C 87 % 1028,5 hPa 0,0 l/m 7,9 km/h (2 Bft) W-NW 292 2,5 C 2,6 C
25.03.2012 06:17 4,4 C 87 % 1028,7 hPa 0,0 l/m 4,0 km/h (1 Bft) O-NO 67 2,4 C 4,4 C
25.03.2012 06:22 4,1 C 87 % 1028,7 hPa 0,0 l/m 1,8 km/h (1 Bft) W 270 2,1 C 4,1 C
25.03.2012 06:27 4,1 C 87 % 1028,7 hPa 0,0 l/m 6,1 km/h (2 Bft) NW 315 2,1 C 2,7 C
25.03.2012 06:32 4,1 C 87 % 1028,9 hPa 0,0 l/m 5,0 km/h (1 Bft) W-NW 292 2,1 C 3,1 C
25.03.2012 06:37 4,1 C 87 % 1028,7 hPa 0,0 l/m 3,2 km/h (1 Bft) NO 45 2,1 C 4,1 C
25.03.2012 06:42 3,9 C 87 % 1028,8 hPa 0,0 l/m 9,4 km/h (2 Bft) W 270 1,9 C 1,5 C
25.03.2012 06:47 3,9 C 87 % 1028,8 hPa 0,0 l/m 7,9 km/h (2 Bft) W-NW 292 1,9 C 1,9 C
25.03.2012 06:52 3,9 C 87 % 1028,8 hPa 0,0 l/m 3,6 km/h (1 Bft) W-NW 292 1,9 C 3,9 C
25.03.2012 06:57 3,9 C 87 % 1028,7 hPa 0,0 l/m 6,1 km/h (2 Bft) N-NW 337 1,9 C 2,4 C
25.03.2012 07:02 3,9 C 87 % 1028,9 hPa 0,0 l/m 3,6 km/h (1 Bft) W-NW 292 1,9 C 3,9 C
25.03.2012 07:07 3,8 C 87 % 1028,6 hPa 0,0 l/m 4,3 km/h (1 Bft) NW 315 1,8 C 3,8 C
25.03.2012 07:12 3,8 C 87 % 1028,9 hPa 0,0 l/m 8,3 km/h (2 Bft) W-NW 292 1,8 C 1,6 C
25.03.2012 07:17 3,8 C 87 % 1028,9 hPa 0,0 l/m 8,6 km/h (2 Bft) W-NW 292 1,8 C 1,6 C
25.03.2012 07:22 3,8 C 88 % 1029,0 hPa 0,0 l/m 5,8 km/h (2 Bft) W-NW 292 2,0 C 2,4 C
25.03.2012 07:27 3,8 C 88 % 1029,0 hPa 0,0 l/m 7,6 km/h (2 Bft) W-NW 292 2,0 C 1,8 C
25.03.2012 07:32 3,8 C 88 % 1028,9 hPa 0,0 l/m 4,7 km/h (1 Bft) W 270 2,0 C 2,8 C
25.03.2012 07:37 3,9 C 88 % 1029,0 hPa 0,0 l/m 7,6 km/h (2 Bft) W-NW 292 2,1 C 2,0 C
25.03.2012 07:42 3,9 C 88 % 1029,0 hPa 0,0 l/m 11,2 km/h (2 Bft) NW 315 2,1 C 1,1 C
25.03.2012 07:47 3,8 C 88 % 1029,2 hPa 0,0 l/m 5,8 km/h (2 Bft) N-NO 22 2,0 C 2,4 C
25.03.2012 07:52 3,8 C 88 % 1029,3 hPa 0,0 l/m 3,6 km/h (1 Bft) N 360 2,0 C 3,8 C
25.03.2012 07:57 3,8 C 89 % 1029,1 hPa 0,0 l/m 4,7 km/h (1 Bft) NO 45 2,2 C 2,8 C
25.03.2012 08:02 3,8 C 89 % 1029,1 hPa 0,0 l/m 4,3 km/h (1 Bft) N-NW 337 2,2 C 3,8 C
25.03.2012 08:07 3,8 C 89 % 1029,2 hPa 0,0 l/m 5,0 km/h (1 Bft) W 270 2,2 C 2,7 C
25.03.2012 08:12 3,9 C 90 % 1029,2 hPa 0,0 l/m 6,5 km/h (2 Bft) W 270 2,4 C 2,3 C
25.03.2012 08:17 4,0 C 90 % 1029,4 hPa 0,0 l/m 4,7 km/h (1 Bft) W-NW 292 2,5 C 3,1 C
25.03.2012 08:22 4,1 C 90 % 1029,5 hPa 0,0 l/m 7,2 km/h (2 Bft) W-NW 292 2,6 C 2,3 C
25.03.2012 08:27 4,1 C 89 % 1029,5 hPa 0,0 l/m 7,6 km/h (2 Bft) NW 315 2,5 C 2,2 C
25.03.2012 08:32 4,1 C 89 % 1029,5 hPa 0,0 l/m 7,2 km/h (2 Bft) W-NW 292 2,5 C 2,3 C
25.03.2012 08:37 4,2 C 89 % 1029,4 hPa 0,0 l/m 5,4 km/h (1 Bft) W-NW 292 2,6 C 3,0 C
25.03.2012 08:42 4,2 C 89 % 1029,6 hPa 0,0 l/m 7,9 km/h (2 Bft) NW 315 2,6 C 2,2 C
25.03.2012 08:47 4,2 C 89 % 1029,7 hPa 0,0 l/m 15,8 km/h (3 Bft) W-NW 292 2,6 C 0,6 C
25.03.2012 08:52 4,2 C 88 % 1029,8 hPa 0,0 l/m 4,7 km/h (1 Bft) NO 45 2,4 C 3,3 C
25.03.2012 08:57 4,1 C 88 % 1029,7 hPa 0,0 l/m 5,0 km/h (1 Bft) NW 315 2,3 C 3,1 C
25.03.2012 09:02 4,1 C 88 % 1029,7 hPa 0,0 l/m 6,5 km/h (2 Bft) W-SW 247 2,3 C 2,5 C
25.03.2012 09:07 4,1 C 88 % 1029,8 hPa 0,0 l/m 4,3 km/h (1 Bft) N-NW 337 2,3 C 4,1 C
25.03.2012 09:12 4,1 C 88 % 1029,7 hPa 0,0 l/m 4,0 km/h (1 Bft) NW 315 2,3 C 4,1 C
25.03.2012 09:17 4,2 C 88 % 1029,8 hPa 0,0 l/m 9,0 km/h (2 Bft) W 270 2,4 C 1,9 C
25.03.2012 09:22 4,4 C 88 % 1029,7 hPa 0,0 l/m 9,7 km/h (2 Bft) NW 315 2,6 C 2,0 C
25.03.2012 09:27 4,4 C 88 % 1029,8 hPa 0,0 l/m 3,6 km/h (1 Bft) W-NW 292 2,6 C 4,4 C
25.03.2012 09:32 4,5 C 88 % 1029,9 hPa 0,0 l/m 4,0 km/h (1 Bft) W 270 2,7 C 4,5 C
25.03.2012 09:37 4,6 C 88 % 1030,0 hPa 0,0 l/m 7,9 km/h (2 Bft) W-NW 292 2,8 C 2,7 C
25.03.2012 09:42 4,7 C 87 % 1030,0 hPa 0,0 l/m 4,7 km/h (1 Bft) W-NW 292 2,7 C 3,9 C
25.03.2012 09:47 4,8 C 87 % 1030,0 hPa 0,0 l/m 6,1 km/h (2 Bft) W-NW 292 2,8 C 3,5 C
25.03.2012 09:52 4,9 C 87 % 1030,0 hPa 0,0 l/m 9,0 km/h (2 Bft) W-NW 292 2,9 C 2,8 C
25.03.2012 09:57 4,9 C 86 % 1030,2 hPa 0,0 l/m 0,0 km/h (0 Bft) W 270 2,8 C 4,9 C
25.03.2012 10:02 5,0 C 86 % 1030,1 hPa 0,0 l/m 0,0 km/h (0 Bft) N-NW 337 2,9 C 5,0 C
25.03.2012 10:07 5,0 C 86 % 1030,2 hPa 0,0 l/m 7,6 km/h (2 Bft) W-NW 292 2,9 C 3,2 C
25.03.2012 10:12 5,2 C 86 % 1030,4 hPa 0,0 l/m 7,6 km/h (2 Bft) W-NW 292 3,1 C 3,5 C
25.03.2012 10:17 5,3 C 85 % 1030,3 hPa 0,0 l/m 9,4 km/h (2 Bft) W 270 3,0 C 3,1 C
25.03.2012 10:22 5,4 C 85 % 1030,3 hPa 0,0 l/m 7,6 km/h (2 Bft) N-NW 337 3,1 C 3,7 C
25.03.2012 10:27 5,5 C 85 % 1030,5 hPa 0,0 l/m 13,3 km/h (3 Bft) W-NW 292 3,2 C 2,6 C
25.03.2012 10:32 5,6 C 85 % 1030,7 hPa 0,0 l/m 6,1 km/h (2 Bft) W-SW 247 3,3 C 4,4 C
25.03.2012 10:37 5,8 C 84 % 1030,7 hPa 0,0 l/m 7,2 km/h (2 Bft) N-NW 337 3,3 C 4,3 C
25.03.2012 10:42 5,8 C 84 % 1030,8 hPa 0,0 l/m 7,6 km/h (2 Bft) NW 315 3,3 C 4,2 C
25.03.2012 10:47 5,9 C 83 % 1030,7 hPa 0,0 l/m 2,9 km/h (1 Bft) N-NW 337 3,2 C 5,9 C
25.03.2012 10:52 5,9 C 83 % 1030,7 hPa 0,0 l/m 3,6 km/h (1 Bft) O-NO 67 3,2 C 5,9 C
25.03.2012 10:57 6,0 C 83 % 1030,6 hPa 0,0 l/m 3,6 km/h (1 Bft) W-NW 292 3,3 C 6,0 C
25.03.2012 11:02 6,2 C 83 % 1030,7 hPa 0,0 l/m 3,2 km/h (1 Bft) W 270 3,5 C 6,2 C
25.03.2012 11:07 6,5 C 83 % 1030,6 hPa 0,0 l/m 7,2 km/h (2 Bft) W-NW 292 3,8 C 5,1 C
25.03.2012 11:12 6,8 C 82 % 1030,6 hPa 0,0 l/m 9,7 km/h (2 Bft) NW 315 3,9 C 4,9 C
25.03.2012 11:17 7,0 C 82 % 1030,6 hPa 0,0 l/m 6,1 km/h (2 Bft) W 270 4,1 C 6,0 C
25.03.2012 11:22 7,2 C 81 % 1030,6 hPa 0,0 l/m 9,4 km/h (2 Bft) NW 315 4,2 C 5,4 C
25.03.2012 11:27 7,4 C 80 % 1030,5 hPa 0,0 l/m 10,1 km/h (2 Bft) W 270 4,2 C 5,5 C
25.03.2012 11:32 7,4 C 79 % 1030,8 hPa 0,0 l/m 10,1 km/h (2 Bft) W 270 4,0 C 5,5 C
25.03.2012 11:37 7,6 C 79 % 1030,7 hPa 0,0 l/m 8,3 km/h (2 Bft) W 270 4,2 C 6,1 C
25.03.2012 11:42 7,9 C 79 % 1030,8 hPa 0,0 l/m 3,6 km/h (1 Bft) N 360 4,5 C 7,9 C
25.03.2012 11:47 8,1 C 78 % 1030,8 hPa 0,0 l/m 9,7 km/h (2 Bft) W 270 4,5 C 6,4 C
25.03.2012 11:52 8,2 C 77 % 1030,5 hPa 0,0 l/m 12,6 km/h (3 Bft) W-NW 292 4,4 C 6,0 C
25.03.2012 11:57 8,4 C 76 % 1030,6 hPa 0,0 l/m 9,4 km/h (2 Bft) NW 315 4,4 C 6,8 C
25.03.2012 12:02 8,4 C 76 % 1030,8 hPa 0,0 l/m 9,0 km/h (2 Bft) W 270 4,4 C 6,9 C
25.03.2012 12:07 8,6 C 75 % 1030,9 hPa 0,0 l/m 5,8 km/h (2 Bft) N-NW 337 4,4 C 7,9 C
25.03.2012 12:12 8,8 C 75 % 1030,9 hPa 0,0 l/m 3,6 km/h (1 Bft) NW 315 4,6 C 8,8 C
25.03.2012 12:17 9,0 C 75 % 1030,8 hPa 0,0 l/m 7,6 km/h (2 Bft) N-NO 22 4,8 C 7,9 C
25.03.2012 12:22 9,2 C 74 % 1030,7 hPa 0,0 l/m 6,1 km/h (2 Bft) O-NO 67 4,8 C 8,5 C
25.03.2012 12:27 9,3 C 73 % 1030,6 hPa 0,0 l/m 10,8 km/h (2 Bft) W-NW 292 4,7 C 7,7 C
25.03.2012 12:32 9,6 C 73 % 1030,6 hPa 0,0 l/m 12,6 km/h (3 Bft) NW 315 5,0 C 7,7 C
25.03.2012 12:37 9,8 C 71 % 1030,6 hPa 0,0 l/m 2,5 km/h (1 Bft) W-NW 292 4,8 C 9,8 C
25.03.2012 12:42 9,9 C 71 % 1030,5 hPa 0,0 l/m 14,8 km/h (3 Bft) W-NW 292 4,9 C 7,8 C
25.03.2012 12:47 10,2 C 69 % 1030,8 hPa 0,0 l/m 11,2 km/h (2 Bft) NW 315 4,8 C 10,2 C
25.03.2012 12:52 10,3 C 69 % 1030,8 hPa 0,0 l/m 7,9 km/h (2 Bft) NW 315 4,9 C 10,3 C
25.03.2012 12:57 10,6 C 69 % 1030,9 hPa 0,0 l/m 7,9 km/h (2 Bft) NW 315 5,2 C 10,6 C
25.03.2012 13:02 10,8 C 67 % 1030,8 hPa 0,0 l/m 6,8 km/h (2 Bft) NO 45 4,9 C 10,8 C
25.03.2012 13:07 10,9 C 67 % 1030,8 hPa 0,0 l/m 8,3 km/h (2 Bft) NW 315 5,0 C 10,9 C
25.03.2012 13:12 11,0 C 66 % 1030,8 hPa 0,0 l/m 9,7 km/h (2 Bft) NW 315 4,9 C 11,0 C
25.03.2012 13:17 11,3 C 67 % 1030,7 hPa 0,0 l/m 9,4 km/h (2 Bft) NW 315 5,4 C 11,3 C
25.03.2012 13:22 11,4 C 65 % 1030,7 hPa 0,0 l/m 6,8 km/h (2 Bft) NW 315 5,1 C 11,4 C
25.03.2012 13:27 11,5 C 64 % 1030,7 hPa 0,0 l/m 6,1 km/h (2 Bft) W-NW 292 4,9 C 11,5 C
25.03.2012 13:32 11,6 C 65 % 1030,7 hPa 0,0 l/m 8,3 km/h (2 Bft) W-NW 292 5,2 C 11,6 C
25.03.2012 13:37 11,9 C 64 % 1030,6 hPa 0,0 l/m 9,7 km/h (2 Bft) W 270 5,3 C 11,9 C
25.03.2012 13:42 12,0 C 64 % 1030,6 hPa 0,0 l/m 10,1 km/h (2 Bft) W-NW 292 5,4 C 12,0 C
25.03.2012 13:47 12,1 C 62 % 1030,6 hPa 0,0 l/m 9,4 km/h (2 Bft) N-NO 22 5,0 C 12,1 C
25.03.2012 13:52 12,3 C 63 % 1030,6 hPa 0,0 l/m 7,9 km/h (2 Bft) W 270 5,5 C 12,3 C
25.03.2012 13:57 12,4 C 62 % 1030,6 hPa 0,0 l/m 10,4 km/h (2 Bft) NW 315 5,3 C 12,4 C
25.03.2012 14:02 12,6 C 61 % 1030,7 hPa 0,0 l/m 11,2 km/h (2 Bft) W-NW 292 5,3 C 12,6 C
25.03.2012 14:07 12,9 C 61 % 1030,6 hPa 0,0 l/m 7,2 km/h (2 Bft) N 360 5,6 C 12,9 C
25.03.2012 14:12 12,9 C 61 % 1030,5 hPa 0,0 l/m 7,9 km/h (2 Bft) W 270 5,6 C 12,9 C
25.03.2012 14:17 13,2 C 60 % 1030,5 hPa 0,0 l/m 12,6 km/h (3 Bft) NO 45 5,6 C 13,2 C
25.03.2012 14:22 13,3 C 61 % 1030,5 hPa 0,0 l/m 10,8 km/h (2 Bft) N 360 5,9 C 13,3 C
25.03.2012 14:27 13,4 C 59 % 1030,5 hPa 0,0 l/m 3,6 km/h (1 Bft) O-NO 67 5,6 C 13,4 C
25.03.2012 14:32 13,6 C 60 % 1030,5 hPa 0,0 l/m 9,4 km/h (2 Bft) W-NW 292 6,0 C 13,6 C
25.03.2012 14:37 13,8 C 58 % 1030,4 hPa 0,0 l/m 7,2 km/h (2 Bft) NO 45 5,7 C 13,8 C
25.03.2012 14:42 13,9 C 59 % 1030,6 hPa 0,0 l/m 3,6 km/h (1 Bft) N 360 6,0 C 13,9 C
25.03.2012 14:47 14,1 C 58 % 1030,6 hPa 0,0 l/m 3,2 km/h (1 Bft) N-NO 22 6,0 C 14,1 C
25.03.2012 14:52 14,3 C 58 % 1030,5 hPa 0,0 l/m 6,1 km/h (2 Bft) N-NW 337 6,2 C 14,3 C
25.03.2012 14:57 14,4 C 56 % 1030,5 hPa 0,0 l/m 9,0 km/h (2 Bft) W 270 5,7 C 14,4 C
25.03.2012 15:02 14,4 C 56 % 1030,5 hPa 0,0 l/m 2,9 km/h (1 Bft) W-NW 292 5,7 C 14,4 C
25.03.2012 15:07 14,7 C 56 % 1030,5 hPa 0,0 l/m 9,4 km/h (2 Bft) W-NW 292 6,0 C 14,7 C
25.03.2012 15:12 14,9 C 56 % 1030,4 hPa 0,0 l/m 4,7 km/h (1 Bft) N-NO 22 6,2 C 14,9 C
25.03.2012 15:17 14,9 C 56 % 1030,4 hPa 0,0 l/m 9,7 km/h (2 Bft) N-NW 337 6,2 C 14,9 C
25.03.2012 15:22 15,1 C 55 % 1030,5 hPa 0,0 l/m 9,7 km/h (2 Bft) W-NW 292 6,1 C 15,1 C
25.03.2012 15:27 15,2 C 54 % 1030,5 hPa 0,0 l/m 3,6 km/h (1 Bft) N-NO 22 6,0 C 15,2 C
25.03.2012 15:32 15,3 C 54 % 1030,5 hPa 0,0 l/m 4,0 km/h (1 Bft) N 360 6,0 C 15,3 C
25.03.2012 15:37 15,4 C 54 % 1030,6 hPa 0,0 l/m 3,2 km/h (1 Bft) N-NO 22 6,1 C 15,4 C
25.03.2012 15:42 15,4 C 53 % 1030,6 hPa 0,0 l/m 6,5 km/h (2 Bft) W-NW 292 5,9 C 15,4 C
25.03.2012 15:47 15,5 C 53 % 1030,5 hPa 0,0 l/m 8,6 km/h (2 Bft) N 360 6,0 C 15,5 C
25.03.2012 15:52 15,5 C 52 % 1030,6 hPa 0,0 l/m 2,5 km/h (1 Bft) O 90 5,7 C 15,5 C
25.03.2012 15:57 15,7 C 51 % 1030,6 hPa 0,0 l/m 6,5 km/h (2 Bft) N 360 5,6 C 15,7 C
25.03.2012 16:02 15,8 C 48 % 1030,6 hPa 0,0 l/m 4,0 km/h (1 Bft) NW 315 4,8 C 15,8 C
25.03.2012 16:07 15,9 C 47 % 1030,5 hPa 0,0 l/m 9,4 km/h (2 Bft) N 360 4,6 C 15,9 C
25.03.2012 16:12 15,9 C 46 % 1030,7 hPa 0,0 l/m 15,5 km/h (3 Bft) N 360 4,3 C 15,9 C
25.03.2012 16:17 15,9 C 46 % 1030,5 hPa 0,0 l/m 7,6 km/h (2 Bft) N 360 4,3 C 15,9 C
25.03.2012 16:22 16,1 C 44 % 1030,7 hPa 0,0 l/m 16,2 km/h (3 Bft) NO 45 3,8 C 16,1 C
25.03.2012 16:27 16,0 C 43 % 1030,6 hPa 0,0 l/m 9,7 km/h (2 Bft) N-NO 22 3,4 C 16,0 C
25.03.2012 16:32 16,1 C 42 % 1030,6 hPa 0,0 l/m 9,7 km/h (2 Bft) NO 45 3,2 C 16,1 C
25.03.2012 16:37 16,1 C 42 % 1030,7 hPa 0,0 l/m 12,6 km/h (3 Bft) N-NW 337 3,2 C 16,1 C
25.03.2012 16:42 16,1 C 42 % 1030,7 hPa 0,0 l/m 10,1 km/h (2 Bft) N-NO 22 3,2 C 16,1 C
25.03.2012 16:47 16,1 C 42 % 1030,8 hPa 0,0 l/m 16,6 km/h (3 Bft) NO 45 3,2 C 16,1 C
25.03.2012 16:52 15,9 C 42 % 1030,7 hPa 0,0 l/m 9,7 km/h (2 Bft) N-NO 22 3,0 C 15,9 C
25.03.2012 16:57 16,1 C 42 % 1030,7 hPa 0,0 l/m 13,0 km/h (3 Bft) N-NO 22 3,2 C 16,1 C
25.03.2012 17:02 15,9 C 42 % 1030,5 hPa 0,0 l/m 12,2 km/h (2 Bft) N-NW 337 3,0 C 15,9 C
25.03.2012 17:07 15,9 C 43 % 1030,6 hPa 0,0 l/m 7,2 km/h (2 Bft) NO 45 3,3 C 15,9 C
25.03.2012 17:12 15,9 C 42 % 1030,7 hPa 0,0 l/m 6,5 km/h (2 Bft) N-NW 337 3,0 C 15,9 C
25.03.2012 17:17 15,9 C 43 % 1030,7 hPa 0,0 l/m 5,0 km/h (1 Bft) NO 45 3,3 C 15,9 C
25.03.2012 17:22 15,9 C 44 % 1030,6 hPa 0,0 l/m 6,8 km/h (2 Bft) NW 315 3,7 C 15,9 C
25.03.2012 17:27 15,9 C 44 % 1030,7 hPa 0,0 l/m 6,5 km/h (2 Bft) N-NO 22 3,7 C 15,9 C
25.03.2012 17:32 15,8 C 44 % 1030,8 hPa 0,0 l/m 8,3 km/h (2 Bft) NO 45 3,6 C 15,8 C
25.03.2012 17:37 15,8 C 43 % 1030,8 hPa 0,0 l/m 13,7 km/h (3 Bft) N-NW 337 3,3 C 15,8 C
25.03.2012 17:42 15,6 C 43 % 1030,8 hPa 0,0 l/m 7,9 km/h (2 Bft) N 360 3,1 C 15,6 C
25.03.2012 17:47 15,4 C 44 % 1030,8 hPa 0,0 l/m 13,0 km/h (3 Bft) NO 45 3,2 C 15,4 C
25.03.2012 17:52 15,4 C 44 % 1030,8 hPa 0,0 l/m 7,9 km/h (2 Bft) NO 45 3,2 C 15,4 C
25.03.2012 17:57 15,3 C 45 % 1030,8 hPa 0,0 l/m 11,5 km/h (2 Bft) NO 45 3,4 C 15,3 C
25.03.2012 18:02 15,3 C 45 % 1030,9 hPa 0,0 l/m 10,8 km/h (2 Bft) N-NO 22 3,4 C 15,3 C
25.03.2012 18:07 15,3 C 45 % 1031,1 hPa 0,0 l/m 14,4 km/h (3 Bft) N-NO 22 3,4 C 15,3 C
25.03.2012 18:12 15,2 C 46 % 1030,9 hPa 0,0 l/m 7,6 km/h (2 Bft) NO 45 3,7 C 15,2 C
25.03.2012 18:17 15,1 C 47 % 1031,1 hPa 0,0 l/m 11,2 km/h (2 Bft) N-NW 337 3,9 C 15,1 C
25.03.2012 18:22 15,0 C 47 % 1031,2 hPa 0,0 l/m 4,7 km/h (1 Bft) O-NO 67 3,8 C 15,0 C
25.03.2012 18:27 14,9 C 48 % 1031,1 hPa 0,0 l/m 11,2 km/h (2 Bft) NO 45 4,0 C 14,9 C
25.03.2012 18:32 14,9 C 48 % 1031,2 hPa 0,0 l/m 9,7 km/h (2 Bft) N 360 4,0 C 14,9 C
25.03.2012 18:37 14,9 C 49 % 1031,2 hPa 0,0 l/m 9,7 km/h (2 Bft) NO 45 4,3 C 14,9 C
25.03.2012 18:42 14,8 C 49 % 1031,1 hPa 0,0 l/m 4,7 km/h (1 Bft) N-NO 22 4,2 C 14,8 C
25.03.2012 18:47 14,6 C 49 % 1031,2 hPa 0,0 l/m 13,3 km/h (3 Bft) N-NO 22 4,0 C 14,6 C
25.03.2012 18:52 14,4 C 49 % 1031,5 hPa 0,0 l/m 7,2 km/h (2 Bft) NO 45 3,8 C 14,4 C
25.03.2012 18:57 14,3 C 48 % 1031,5 hPa 0,0 l/m 11,2 km/h (2 Bft) N 360 3,4 C 14,3 C
25.03.2012 19:02 14,2 C 47 % 1031,3 hPa 0,0 l/m 10,8 km/h (2 Bft) N-NO 22 3,1 C 14,2 C
25.03.2012 19:07 14,1 C 47 % 1031,4 hPa 0,0 l/m 9,4 km/h (2 Bft) NO 45 3,0 C 14,1 C
25.03.2012 19:12 13,9 C 47 % 1031,5 hPa 0,0 l/m 5,8 km/h (2 Bft) N-NO 22 2,8 C 13,9 C
25.03.2012 19:17 13,7 C 48 % 1031,6 hPa 0,0 l/m 9,7 km/h (2 Bft) N-NO 22 2,9 C 13,7 C
25.03.2012 19:22 13,6 C 48 % 1031,6 hPa 0,0 l/m 9,4 km/h (2 Bft) N-NO 22 2,8 C 13,6 C
25.03.2012 19:27 13,4 C 49 % 1031,6 hPa 0,0 l/m 5,4 km/h (1 Bft) N-NO 22 2,9 C 13,4 C
25.03.2012 19:32 13,3 C 49 % 1031,6 hPa 0,0 l/m 7,6 km/h (2 Bft) O-NO 67 2,8 C 13,3 C
25.03.2012 19:37 13,1 C 49 % 1031,8 hPa 0,0 l/m 9,4 km/h (2 Bft) NO 45 2,6 C 13,1 C
25.03.2012 19:42 12,9 C 49 % 1031,8 hPa 0,0 l/m 8,6 km/h (2 Bft) N-NO 22 2,5 C 12,9 C
25.03.2012 19:47 12,8 C 50 % 1031,9 hPa 0,0 l/m 5,0 km/h (1 Bft) NO 45 2,6 C 12,8 C
25.03.2012 19:52 12,6 C 50 % 1031,8 hPa 0,0 l/m 4,7 km/h (1 Bft) N 360 2,5 C 12,6 C
25.03.2012 19:57 12,5 C 51 % 1031,7 hPa 0,0 l/m 2,5 km/h (1 Bft) NO 45 2,6 C 12,5 C
25.03.2012 20:02 12,4 C 51 % 1031,8 hPa 0,0 l/m 3,2 km/h (1 Bft) NO 45 2,6 C 12,4 C
25.03.2012 20:07 12,3 C 52 % 1031,9 hPa 0,0 l/m 4,0 km/h (1 Bft) NO 45 2,7 C 12,3 C
25.03.2012 20:12 12,1 C 52 % 1031,9 hPa 0,0 l/m 1,8 km/h (1 Bft) N-NO 22 2,5 C 12,1 C
25.03.2012 20:17 11,9 C 53 % 1031,9 hPa 0,0 l/m 0,0 km/h (0 Bft) N 360 2,6 C 11,9 C
25.03.2012 20:22 11,9 C 53 % 1031,9 hPa 0,0 l/m 1,4 km/h (1 Bft) N-NO 22 2,6 C 11,9 C
25.03.2012 20:27 11,8 C 54 % 1032,0 hPa 0,0 l/m 3,2 km/h (1 Bft) W-NW 292 2,8 C 11,8 C
25.03.2012 20:32 11,6 C 54 % 1032,2 hPa 0,0 l/m 2,9 km/h (1 Bft) NO 45 2,6 C 11,6 C
25.03.2012 20:37 11,3 C 55 % 1032,2 hPa 0,0 l/m 2,5 km/h (1 Bft) N-NO 22 2,6 C 11,3 C
25.03.2012 20:42 11,1 C 56 % 1032,2 hPa 0,0 l/m 4,0 km/h (1 Bft) NO 45 2,7 C 11,1 C
25.03.2012 20:47 10,9 C 56 % 1032,3 hPa 0,0 l/m 3,6 km/h (1 Bft) NO 45 2,5 C 10,9 C
25.03.2012 20:52 10,9 C 56 % 1032,4 hPa 0,0 l/m 3,6 km/h (1 Bft) NO 45 2,5 C 10,9 C
25.03.2012 20:57 10,8 C 56 % 1032,6 hPa 0,0 l/m 4,0 km/h (1 Bft) NO 45 2,4 C 10,8 C
25.03.2012 21:02 10,7 C 56 % 1032,6 hPa 0,0 l/m 2,2 km/h (1 Bft) NO 45 2,3 C 10,7 C
25.03.2012 21:07 10,6 C 57 % 1032,7 hPa 0,0 l/m 4,0 km/h (1 Bft) N-NO 22 2,4 C 10,6 C
25.03.2012 21:12 10,5 C 57 % 1032,8 hPa 0,0 l/m 4,0 km/h (1 Bft) N-NO 22 2,3 C 10,5 C
25.03.2012 21:17 10,5 C 57 % 1032,6 hPa 0,0 l/m 2,9 km/h (1 Bft) NO 45 2,3 C 10,5 C
25.03.2012 21:22 10,4 C 58 % 1032,7 hPa 0,0 l/m 3,2 km/h (1 Bft) N-NO 22 2,5 C 10,4 C
25.03.2012 21:27 10,3 C 58 % 1032,9 hPa 0,0 l/m 4,0 km/h (1 Bft) NO 45 2,4 C 10,3 C
25.03.2012 21:32 10,2 C 59 % 1033,0 hPa 0,0 l/m 1,4 km/h (1 Bft) NO 45 2,6 C 10,2 C
25.03.2012 21:37 10,1 C 59 % 1033,0 hPa 0,0 l/m 5,0 km/h (1 Bft) N-NO 22 2,5 C 10,1 C
25.03.2012 21:42 9,9 C 59 % 1033,1 hPa 0,0 l/m 2,2 km/h (1 Bft) N-NO 22 2,3 C 9,9 C
25.03.2012 21:47 9,9 C 60 % 1033,0 hPa 0,0 l/m 0,0 km/h (0 Bft) NO 45 2,5 C 9,9 C
25.03.2012 21:52 9,8 C 60 % 1033,1 hPa 0,0 l/m 2,5 km/h (1 Bft) N-NO 22 2,4 C 9,8 C
25.03.2012 21:57 9,6 C 60 % 1033,1 hPa 0,0 l/m 2,9 km/h (1 Bft) NO 45 2,2 C 9,6 C
25.03.2012 22:02 9,5 C 61 % 1033,1 hPa 0,0 l/m 1,4 km/h (1 Bft) N-NO 22 2,4 C 9,5 C
25.03.2012 22:07 9,5 C 61 % 1033,1 hPa 0,0 l/m 2,2 km/h (1 Bft) NO 45 2,4 C 9,5 C
25.03.2012 22:12 9,4 C 62 % 1033,2 hPa 0,0 l/m 2,5 km/h (1 Bft) O-NO 67 2,5 C 9,4 C
25.03.2012 22:17 9,4 C 63 % 1033,2 hPa 0,0 l/m 0,0 km/h (0 Bft) NO 45 2,7 C 9,4 C
25.03.2012 22:22 9,3 C 63 % 1033,2 hPa 0,0 l/m 2,5 km/h (1 Bft) N-NO 22 2,6 C 9,3 C
25.03.2012 22:27 9,3 C 64 % 1033,2 hPa 0,0 l/m 3,6 km/h (1 Bft) NO 45 2,8 C 9,3 C
25.03.2012 22:32 9,2 C 64 % 1033,3 hPa 0,0 l/m 0,0 km/h (0 Bft) N-NO 22 2,8 C 9,2 C
25.03.2012 22:37 9,1 C 64 % 1033,3 hPa 0,0 l/m 0,0 km/h (0 Bft) NO 45 2,7 C 9,1 C
25.03.2012 22:42 9,0 C 64 % 1033,3 hPa 0,0 l/m 0,0 km/h (0 Bft) NO 45 2,6 C 9,0 C
25.03.2012 22:47 8,9 C 65 % 1033,5 hPa 0,0 l/m 2,2 km/h (1 Bft) NO 45 2,7 C 8,9 C
25.03.2012 22:52 8,8 C 65 % 1033,5 hPa 0,0 l/m 1,8 km/h (1 Bft) N-NO 22 2,6 C 8,8 C
25.03.2012 22:57 8,8 C 66 % 1033,6 hPa 0,0 l/m 2,9 km/h (1 Bft) NO 45 2,8 C 8,8 C
25.03.2012 23:02 8,7 C 67 % 1033,5 hPa 0,0 l/m 3,6 km/h (1 Bft) O-NO 67 2,9 C 8,7 C
25.03.2012 23:07 8,6 C 67 % 1033,7 hPa 0,0 l/m 4,0 km/h (1 Bft) O-NO 67 2,8 C 8,6 C
25.03.2012 23:12 8,6 C 67 % 1033,7 hPa 0,0 l/m 3,6 km/h (1 Bft) O-NO 67 2,8 C 8,6 C
25.03.2012 23:17 8,6 C 68 % 1033,8 hPa 0,0 l/m 3,2 km/h (1 Bft) O-NO 67 3,0 C 8,6 C
25.03.2012 23:22 8,5 C 68 % 1033,6 hPa 0,0 l/m 1,8 km/h (1 Bft) O 90 2,9 C 8,5 C
25.03.2012 23:27 8,5 C 68 % 1033,7 hPa 0,0 l/m 1,8 km/h (1 Bft) O 90 2,9 C 8,5 C
25.03.2012 23:32 8,4 C 69 % 1033,7 hPa 0,0 l/m 4,0 km/h (1 Bft) O-NO 67 3,0 C 8,4 C
25.03.2012 23:37 8,4 C 69 % 1033,9 hPa 0,0 l/m 0,0 km/h (0 Bft) O-NO 67 3,0 C 8,4 C
25.03.2012 23:42 8,3 C 69 % 1033,8 hPa 0,0 l/m 3,6 km/h (1 Bft) O-NO 67 3,0 C 8,3 C
25.03.2012 23:47 8,2 C 70 % 1034,0 hPa 0,0 l/m 4,0 km/h (1 Bft) O 90 3,1 C 8,2 C
25.03.2012 23:52 8,1 C 70 % 1034,0 hPa 0,0 l/m 2,2 km/h (1 Bft) O 90 3,0 C 8,1 C
25.03.2012 23:57 8,1 C 71 % 1034,1 hPa 0,0 l/m 0,0 km/h (0 Bft) O 90 3,2 C 8,1 C
_ Min-Zeit 07:07 16:32 00:07 - 00:02 - - 07:07 08:47
Minimum _ 3,8 C 42 % 1028,1 hPa - 0,0 km/h (0 Bft) - - 1,8 C 0,6 C
_ Max-Zeit 16:22 08:12 23:57 00:02 16:47 - - 15:12 16:22
Maximum _ 16,1 C 90 % 1034,1 hPa 0,0 l/m 16,6 km/h
NO (3 Bft)
- - 6,2 C 16,1 C
Durchschnitt _ 9,0 C 70 % 1030,3 hPa #0,0 l/m 5,3 km/h (1 Bft) W-NW - 3,3 C 8,6 C
(c) by David Heller